createdAt,value
2022-09-17T00:01:11.045Z,97817.06
2022-09-17T00:03:38.669Z,97811.97
2022-09-17T00:06:07.289Z,97814.00
2022-09-17T00:08:35.638Z,97818.66
2022-09-17T00:11:09.091Z,97816.25
2022-09-17T00:13:36.511Z,97816.34
2022-09-17T00:16:04.002Z,97828.81
2022-09-17T00:18:31.719Z,97827.16
2022-09-17T00:20:59.509Z,97822.94
2022-09-17T00:23:26.922Z,97829.38
2022-09-17T00:25:54.907Z,97828.53
2022-09-17T00:28:22.375Z,97828.84
2022-09-17T00:30:49.653Z,97836.16
2022-09-17T00:33:18.222Z,97831.94
2022-09-17T00:35:45.700Z,97829.41
2022-09-17T00:38:13.048Z,97833.22
2022-09-17T00:40:40.631Z,97837.75
2022-09-17T00:43:12.307Z,97840.63
2022-09-17T00:45:40.154Z,97853.09
2022-09-17T00:48:07.929Z,97852.34
2022-09-17T00:50:39.629Z,97849.00
2022-09-17T00:53:10.202Z,97846.44
2022-09-17T00:55:39.562Z,97844.88
2022-09-17T00:58:08.494Z,97852.03
2022-09-17T01:00:36.512Z,97848.66
2022-09-17T01:03:03.635Z,97847.94
2022-09-17T01:05:42.231Z,97849.00
2022-09-17T01:08:29.736Z,97850.91
2022-09-17T01:11:16.179Z,97855.44
2022-09-17T01:14:02.902Z,97845.91
2022-09-17T01:16:30.693Z,97789.03
2022-09-17T01:19:16.779Z,97855.03
2022-09-17T01:21:54.017Z,97854.38
2022-09-17T01:24:30.580Z,97849.31
2022-09-17T01:27:04.801Z,97852.91
2022-09-17T01:29:50.566Z,97838.88
2022-09-17T01:32:18.059Z,97855.84
2022-09-17T01:34:51.457Z,97862.19
2022-09-17T01:37:38.267Z,97853.53
2022-09-17T01:40:05.586Z,97859.84
2022-09-17T01:42:46.519Z,97861.88
2022-09-17T01:45:26.865Z,97861.97
2022-09-17T01:48:03.898Z,97859.44
2022-09-17T01:50:38.371Z,97868.41
2022-09-17T01:53:07.541Z,97867.75
2022-09-17T01:55:36.957Z,97865.31
2022-09-17T01:58:16.759Z,97867.22
2022-09-17T02:00:48.062Z,97872.69
2022-09-17T02:03:20.483Z,97875.47
2022-09-17T02:05:59.761Z,97880.00
2022-09-17T02:08:29.857Z,97888.13
2022-09-17T02:11:02.183Z,97891.09
2022-09-17T02:13:33.271Z,97888.97
2022-09-17T02:16:08.080Z,97892.03
2022-09-17T02:19:02.679Z,97885.25
2022-09-17T02:21:48.734Z,97883.84
2022-09-17T02:24:26.818Z,97888.50
2022-09-17T02:27:23.682Z,97899.34
2022-09-17T02:29:51.473Z,97888.25
2022-09-17T02:32:20.681Z,97895.41
2022-09-17T02:34:47.886Z,97891.28
2022-09-17T02:37:15.427Z,97893.25
2022-09-17T02:39:43.019Z,97890.81
2022-09-17T02:42:20.060Z,97890.94
2022-09-17T02:44:56.832Z,97891.13
2022-09-17T02:47:33.716Z,97899.13
2022-09-17T02:50:04.001Z,97899.41
2022-09-17T02:52:52.333Z,97908.34
2022-09-17T02:55:23.506Z,97900.56
2022-09-17T02:58:00.649Z,97907.59
2022-09-17T03:00:28.612Z,97908.56
2022-09-17T03:02:59.623Z,97913.75
2022-09-17T03:05:28.204Z,97907.59
2022-09-17T03:07:57.183Z,97909.94
2022-09-17T03:10:24.639Z,97914.19
2022-09-17T03:12:54.140Z,97916.72
2022-09-17T03:15:21.471Z,97914.09
2022-09-17T03:17:53.151Z,97911.25
2022-09-17T03:20:21.264Z,97917.16
2022-09-17T03:22:48.313Z,97918.78
2022-09-17T03:25:15.370Z,97921.13
2022-09-17T03:27:42.683Z,97927.03
2022-09-17T03:30:10.049Z,97927.59
2022-09-17T03:32:37.169Z,97931.81
2022-09-17T03:35:04.944Z,97936.72
2022-09-17T03:37:33.129Z,97936.38
2022-09-17T03:40:00.780Z,97933.47
2022-09-17T03:42:28.416Z,97935.78
2022-09-17T03:44:55.744Z,97936.44
2022-09-17T03:47:22.853Z,97932.75
2022-09-17T03:49:50.324Z,97934.22
2022-09-17T03:52:17.770Z,97938.63
2022-09-17T03:54:45.253Z,97943.03
2022-09-17T03:57:12.659Z,97945.38
2022-09-17T03:59:40.088Z,97945.00
2022-09-17T04:02:08.246Z,97940.25
2022-09-17T04:04:36.545Z,97953.69
2022-09-17T04:07:03.911Z,97950.38
2022-09-17T04:09:33.282Z,97952.19
2022-09-17T04:12:02.704Z,97956.50
2022-09-17T04:14:29.668Z,97957.25
2022-09-17T04:16:58.564Z,97956.09
2022-09-17T04:19:26.226Z,97954.91
2022-09-17T04:21:54.026Z,97958.81
2022-09-17T04:24:21.484Z,97958.28
2022-09-17T04:26:49.103Z,97962.91
2022-09-17T04:29:16.527Z,97963.31
2022-09-17T04:31:43.718Z,97960.53
2022-09-17T04:34:11.098Z,97966.81
2022-09-17T04:36:38.154Z,97968.66
2022-09-17T04:39:05.563Z,97971.72
2022-09-17T04:41:33.096Z,97977.13
2022-09-17T04:44:00.435Z,97972.97
2022-09-17T04:46:27.592Z,97968.47
2022-09-17T04:48:55.425Z,97974.81
2022-09-17T04:51:28.667Z,97984.22
2022-09-17T04:53:56.197Z,97983.50
2022-09-17T04:56:23.809Z,97984.94
2022-09-17T04:58:51.279Z,97986.63
2022-09-17T05:01:19.265Z,97984.38
2022-09-17T05:03:46.503Z,97993.03
2022-09-17T05:06:13.665Z,97995.22
2022-09-17T05:08:41.099Z,97983.66
2022-09-17T05:11:08.302Z,97998.31
2022-09-17T05:13:35.970Z,97996.63
2022-09-17T05:16:03.513Z,97990.94
2022-09-17T05:18:31.426Z,97999.13
2022-09-17T05:20:59.033Z,98002.00
2022-09-17T05:23:27.169Z,98006.56
2022-09-17T05:25:58.070Z,98007.16
2022-09-17T05:28:25.212Z,98010.81
2022-09-17T05:30:53.363Z,98011.53
2022-09-17T05:33:21.317Z,98017.13
2022-09-17T05:35:48.679Z,98030.84
2022-09-17T05:38:16.142Z,98026.03
2022-09-17T05:40:43.631Z,98027.75
2022-09-17T05:43:10.921Z,98043.91
2022-09-17T05:45:38.512Z,98041.75
2022-09-17T05:48:06.685Z,98042.72
2022-09-17T05:50:34.097Z,98040.72
2022-09-17T05:53:06.249Z,98043.59
2022-09-17T05:55:35.824Z,98055.31
2022-09-17T05:58:20.160Z,98060.88
2022-09-17T06:00:49.027Z,98063.69
2022-09-17T06:03:17.515Z,98061.88
2022-09-17T06:05:52.597Z,98058.97
2022-09-17T06:08:20.510Z,98078.09
2022-09-17T06:10:47.793Z,98070.72
2022-09-17T06:13:15.764Z,98072.56
2022-09-17T06:15:43.256Z,98074.78
2022-09-17T06:18:10.429Z,98071.28
2022-09-17T06:20:37.743Z,98073.19
2022-09-17T06:23:05.541Z,98076.00
2022-09-17T06:25:33.034Z,98081.19
2022-09-17T06:28:02.229Z,98075.44
2022-09-17T06:30:29.521Z,98078.81
2022-09-17T06:32:59.489Z,98082.91
2022-09-17T06:35:26.665Z,98077.59
2022-09-17T06:37:54.099Z,98076.03
2022-09-17T06:40:23.569Z,98070.59
2022-09-17T06:42:51.049Z,98068.31
2022-09-17T06:45:18.357Z,98071.28
2022-09-17T06:47:45.445Z,98082.63
2022-09-17T06:50:12.719Z,98074.41
2022-09-17T06:52:39.983Z,98071.38
2022-09-17T06:55:07.379Z,98077.97
2022-09-17T06:57:35.097Z,98076.63
2022-09-17T07:00:02.994Z,98077.13
2022-09-17T07:02:30.301Z,98077.66
2022-09-17T07:04:57.918Z,98072.09
2022-09-17T07:07:27.237Z,98077.09
2022-09-17T07:09:54.753Z,98083.16
2022-09-17T07:12:22.478Z,98075.34
2022-09-17T07:14:49.921Z,98078.97
2022-09-17T07:17:18.550Z,98085.63
2022-09-17T07:19:46.291Z,98092.91
2022-09-17T07:22:14.302Z,98090.72
2022-09-17T07:24:41.574Z,98090.44
2022-09-17T07:27:09.188Z,98091.44
2022-09-17T07:29:36.907Z,98091.31
2022-09-17T07:32:04.028Z,98095.47
2022-09-17T07:34:31.281Z,98098.34
2022-09-17T07:36:58.657Z,98099.63
2022-09-17T07:39:25.867Z,98096.34
2022-09-17T07:41:53.941Z,98095.56
2022-09-17T07:44:22.335Z,98098.31
2022-09-17T07:46:49.880Z,98098.66
2022-09-17T07:49:17.204Z,98104.59
2022-09-17T07:51:44.202Z,98103.47
2022-09-17T07:54:12.031Z,98104.97
2022-09-17T07:56:45.294Z,98111.03
2022-09-17T07:59:13.253Z,98107.81
2022-09-17T08:01:41.042Z,98108.94
2022-09-17T08:04:08.784Z,98097.75
2022-09-17T08:06:40.329Z,98098.22
2022-09-17T08:09:07.649Z,98101.34
2022-09-17T08:11:55.178Z,98102.41
2022-09-17T08:14:28.462Z,98104.88
2022-09-17T08:16:57.625Z,98101.78
2022-09-17T08:19:25.897Z,98102.84
2022-09-17T08:21:53.080Z,98112.00
2022-09-17T08:24:21.159Z,98101.69
2022-09-17T08:26:48.997Z,98093.47
2022-09-17T08:29:16.370Z,98104.75
2022-09-17T08:31:43.619Z,98095.56
2022-09-17T08:34:10.902Z,98094.34
2022-09-17T08:36:38.157Z,98090.25
2022-09-17T08:39:05.923Z,98095.06
2022-09-17T08:41:34.149Z,98096.28
2022-09-17T08:44:01.566Z,98097.75
2022-09-17T08:46:32.419Z,98099.41
2022-09-17T08:49:11.833Z,98107.00
2022-09-17T08:51:46.116Z,98113.09
2022-09-17T08:54:19.471Z,98105.94
2022-09-17T08:56:48.245Z,98115.47
2022-09-17T08:59:35.008Z,98124.63
2022-09-17T09:02:12.351Z,98121.59
2022-09-17T09:05:17.976Z,98123.00
2022-09-17T09:07:47.898Z,98122.47
2022-09-17T09:10:23.617Z,98111.31
2022-09-17T09:12:52.295Z,98106.13
2022-09-17T09:15:28.201Z,98118.25
2022-09-17T09:17:58.163Z,98116.28
2022-09-17T09:20:39.538Z,98125.63
2022-09-17T09:23:16.336Z,98121.97
2022-09-17T09:25:52.769Z,98121.78
2022-09-17T09:28:31.345Z,98121.97
2022-09-17T09:30:58.706Z,98119.59
2022-09-17T09:33:32.316Z,98122.97
2022-09-17T09:35:59.874Z,98122.81
2022-09-17T09:38:27.854Z,98120.81
2022-09-17T09:41:01.869Z,98087.13
2022-09-17T09:44:02.303Z,98131.94
2022-09-17T09:46:42.467Z,98126.56
2022-09-17T09:49:10.031Z,98140.53
2022-09-17T09:51:46.494Z,98133.66
2022-09-17T09:54:32.420Z,98138.69
2022-09-17T09:57:20.037Z,98136.63
2022-09-17T09:59:47.662Z,98144.19
2022-09-17T10:02:14.883Z,98123.88
2022-09-17T10:04:42.320Z,98138.50
2022-09-17T10:07:10.926Z,98132.47
2022-09-17T10:09:39.310Z,98141.38
2022-09-17T10:12:16.465Z,98145.16
2022-09-17T10:14:45.110Z,98137.22
2022-09-17T10:17:15.287Z,98145.25
2022-09-17T10:19:43.590Z,98159.44
2022-09-17T10:22:23.491Z,98147.66
2022-09-17T10:24:52.661Z,98149.75
2022-09-17T10:27:21.313Z,98152.41
2022-09-17T10:29:51.219Z,98144.75
2022-09-17T10:32:20.093Z,98139.72
2022-09-17T10:35:04.617Z,98137.03
2022-09-17T10:37:47.347Z,98143.72
2022-09-17T10:40:21.018Z,98154.75
2022-09-17T10:42:49.408Z,98152.72
2022-09-17T10:45:27.027Z,98154.84
2022-09-17T10:47:55.721Z,98157.56
2022-09-17T10:50:35.785Z,98168.88
2022-09-17T10:53:05.237Z,98180.66
2022-09-17T10:55:37.418Z,98180.78
2022-09-17T10:58:05.175Z,98192.53
2022-09-17T11:00:36.112Z,98184.88
2022-09-17T11:03:31.153Z,98184.19
2022-09-17T11:05:58.402Z,98176.25
2022-09-17T11:08:31.849Z,98174.97
2022-09-17T11:11:19.563Z,98176.56
2022-09-17T11:13:49.694Z,98179.63
2022-09-17T11:16:36.089Z,98171.59
2022-09-17T11:19:12.696Z,98179.50
2022-09-17T11:21:45.881Z,98170.91
2022-09-17T11:24:19.080Z,98177.13
2022-09-17T11:27:05.511Z,98169.41
2022-09-17T11:29:51.634Z,98165.84
2022-09-17T11:32:37.696Z,98164.88
2022-09-17T11:35:11.763Z,98171.72
2022-09-17T11:38:00.114Z,98176.88
2022-09-17T11:40:30.858Z,98184.63
2022-09-17T11:43:18.888Z,98179.75
2022-09-17T11:45:52.045Z,98178.25
2022-09-17T11:48:21.844Z,98166.00
2022-09-17T11:50:48.939Z,98163.69
2022-09-17T11:53:36.591Z,98160.56
2022-09-17T11:56:09.500Z,98178.75
2022-09-17T11:58:43.433Z,98174.56
2022-09-17T12:01:26.440Z,98192.19
2022-09-17T12:03:56.943Z,98186.00
2022-09-17T12:06:32.249Z,98192.00
2022-09-17T12:09:05.432Z,98177.16
2022-09-17T12:11:46.469Z,98177.38
2022-09-17T12:14:19.521Z,98181.72
2022-09-17T12:16:49.638Z,98179.56
2022-09-17T12:19:23.928Z,98182.88
2022-09-17T12:21:56.945Z,98189.81
2022-09-17T12:24:28.418Z,98177.56
2022-09-17T12:27:13.681Z,98188.56
2022-09-17T12:29:40.856Z,98199.97
2022-09-17T12:32:34.886Z,98199.22
2022-09-17T12:35:16.569Z,98201.09
2022-09-17T12:37:43.925Z,98192.31
2022-09-17T12:40:30.385Z,98204.25
2022-09-17T12:42:58.116Z,98204.31
2022-09-17T12:45:32.317Z,98199.56
2022-09-17T12:47:59.600Z,98205.16
2022-09-17T12:50:29.831Z,98217.56
2022-09-17T12:52:57.848Z,98212.94
2022-09-17T12:55:27.832Z,98226.16
2022-09-17T12:58:11.145Z,98232.50
2022-09-17T13:00:44.526Z,98229.72
2022-09-17T13:03:30.273Z,98234.94
2022-09-17T13:05:57.393Z,98222.97
2022-09-17T13:08:30.573Z,98228.31
2022-09-17T13:11:00.815Z,98223.97
2022-09-17T13:13:43.875Z,98224.28
2022-09-17T13:16:19.849Z,98223.78
2022-09-17T13:19:18.242Z,98217.75
2022-09-17T13:22:00.595Z,98214.41
2022-09-17T13:24:31.292Z,98222.81
2022-09-17T13:27:00.295Z,98206.34
2022-09-17T13:30:00.535Z,98208.47
2022-09-17T13:32:34.848Z,98209.91
2022-09-17T13:35:14.827Z,98204.91
2022-09-17T13:37:45.777Z,98215.06
2022-09-17T13:40:31.848Z,98209.78
2022-09-17T13:43:08.284Z,98220.78
2022-09-17T13:45:55.541Z,98211.94
2022-09-17T13:48:25.097Z,98217.84
2022-09-17T13:50:53.732Z,98219.41
2022-09-17T13:53:27.373Z,98207.00
2022-09-17T13:55:55.915Z,98206.72
2022-09-17T13:58:40.888Z,98211.25
2022-09-17T14:01:08.101Z,98212.09
2022-09-17T14:03:37.401Z,98211.94
2022-09-17T14:06:18.316Z,98213.75
2022-09-17T14:08:45.697Z,98220.38
2022-09-17T14:11:30.634Z,98206.13
2022-09-17T14:14:03.801Z,98212.06
2022-09-17T14:16:46.292Z,98206.03
2022-09-17T14:19:16.486Z,98212.94
2022-09-17T14:22:04.375Z,98208.72
2022-09-17T14:24:44.460Z,98211.25
2022-09-17T14:27:14.322Z,98209.69
2022-09-17T14:29:43.316Z,98210.69
2022-09-17T14:32:16.346Z,98211.06
2022-09-17T14:34:43.809Z,98213.31
2022-09-17T14:37:15.562Z,98216.81
2022-09-17T14:39:45.871Z,98213.59
2022-09-17T14:42:19.636Z,98216.09
2022-09-17T14:44:50.043Z,98217.22
2022-09-17T14:47:20.175Z,98217.94
2022-09-17T14:49:47.583Z,98222.97
2022-09-17T14:52:31.577Z,98229.81
2022-09-17T14:55:15.780Z,98236.34
2022-09-17T14:57:44.348Z,98233.25
2022-09-17T15:00:40.883Z,98241.41
2022-09-17T15:03:20.938Z,98247.69
2022-09-17T15:05:51.462Z,98253.03
2022-09-17T15:08:23.793Z,98261.88
2022-09-17T15:10:53.904Z,98252.47
2022-09-17T15:13:31.810Z,98241.03
2022-09-17T15:15:59.601Z,98240.50
2022-09-17T15:18:32.255Z,98255.59
2022-09-17T15:21:24.278Z,98252.25
2022-09-17T15:23:55.466Z,98256.19
2022-09-17T15:26:25.353Z,98281.22
2022-09-17T15:28:55.193Z,98314.91
2022-09-17T15:31:31.138Z,98313.50
2022-09-17T15:34:01.634Z,98295.28
2022-09-17T15:36:33.230Z,98294.44
2022-09-17T15:39:01.367Z,98296.88
2022-09-17T15:41:31.222Z,98292.16
2022-09-17T15:44:29.029Z,98286.47
2022-09-17T15:47:25.105Z,98279.47
2022-09-17T15:50:28.428Z,98274.03
2022-09-17T15:53:12.662Z,98270.03
2022-09-17T15:55:41.482Z,98268.56
2022-09-17T15:58:23.989Z,98269.59
2022-09-17T16:01:10.051Z,98275.19
2022-09-17T16:03:40.820Z,98288.66
2022-09-17T16:06:21.079Z,98290.38
2022-09-17T16:08:49.651Z,98292.03
2022-09-17T16:11:17.342Z,98287.16
2022-09-17T16:13:51.381Z,98286.66
2022-09-17T16:16:20.021Z,98285.44
2022-09-17T16:18:48.190Z,98292.88
2022-09-17T16:21:22.023Z,98305.47
2022-09-17T16:23:52.738Z,98315.16
2022-09-17T16:26:21.804Z,98319.91
2022-09-17T16:28:55.313Z,98319.97
2022-09-17T16:31:22.742Z,98315.56
2022-09-17T16:33:50.230Z,98308.75
2022-09-17T16:36:18.094Z,98317.97
2022-09-17T16:38:45.632Z,98317.53
2022-09-17T16:41:13.043Z,98317.38
2022-09-17T16:44:01.198Z,98314.88
2022-09-17T16:46:28.268Z,98315.09
2022-09-17T16:48:55.420Z,98326.56
2022-09-17T16:51:22.692Z,98330.88
2022-09-17T16:53:50.797Z,98326.56
2022-09-17T16:56:18.518Z,98327.84
2022-09-17T16:58:49.917Z,98329.09
2022-09-17T17:01:17.254Z,98327.38
2022-09-17T17:03:45.895Z,98335.22
2022-09-17T17:06:16.737Z,98332.41
2022-09-17T17:08:49.252Z,98321.59
2022-09-17T17:11:16.738Z,98319.72
2022-09-17T17:13:44.557Z,98321.13
2022-09-17T17:16:14.080Z,98321.66
2022-09-17T17:18:44.767Z,98326.44
2022-09-17T17:21:13.013Z,98328.69
2022-09-17T17:23:40.660Z,98327.31
2022-09-17T17:26:08.254Z,98327.63
2022-09-17T17:28:36.811Z,98333.97
2022-09-17T17:31:04.635Z,98327.00
2022-09-17T17:33:32.163Z,98327.19
2022-09-17T17:36:07.309Z,98332.69
2022-09-17T17:38:35.730Z,98331.63
2022-09-17T17:41:23.304Z,98332.16
2022-09-17T17:43:52.720Z,98335.13
2022-09-17T17:46:20.483Z,98329.94
2022-09-17T17:48:47.902Z,98319.53
2022-09-17T17:51:16.109Z,98329.50
2022-09-17T17:53:43.434Z,98334.88
2022-09-17T17:56:11.677Z,98339.53
2022-09-17T17:58:39.622Z,98347.03
2022-09-17T18:01:10.961Z,98352.84
2022-09-17T18:03:38.457Z,98346.47
2022-09-17T18:06:06.590Z,98353.59
2022-09-17T18:08:35.710Z,98349.44
2022-09-17T18:11:04.460Z,98353.41
2022-09-17T18:13:31.783Z,98352.03
2022-09-17T18:16:00.999Z,98346.31
2022-09-17T18:18:37.960Z,98343.59
2022-09-17T18:21:10.133Z,98356.63
2022-09-17T18:23:38.918Z,98359.19
2022-09-17T18:26:10.920Z,98355.47
2022-09-17T18:28:38.229Z,98359.63
2022-09-17T18:31:24.874Z,98351.38
2022-09-17T18:33:57.779Z,98354.53
2022-09-17T18:36:28.822Z,98358.75
2022-09-17T18:39:16.693Z,98356.63
2022-09-17T18:41:49.190Z,98363.06
2022-09-17T18:44:18.874Z,98362.44
2022-09-17T18:46:48.123Z,98366.13
2022-09-17T18:49:16.071Z,98359.25
2022-09-17T18:51:43.154Z,98364.75
2022-09-17T18:54:11.308Z,98361.44
2022-09-17T18:56:38.788Z,98364.22
2022-09-17T18:59:08.322Z,98361.66
2022-09-17T19:01:36.061Z,98365.34
2022-09-17T19:04:03.663Z,98359.31
2022-09-17T19:06:32.427Z,98370.00
2022-09-17T19:09:00.926Z,98370.75
2022-09-17T19:11:28.617Z,98365.47
2022-09-17T19:13:56.000Z,98360.44
2022-09-17T19:16:23.324Z,98362.44
2022-09-17T19:18:50.760Z,98367.91
2022-09-17T19:21:19.158Z,98380.44
2022-09-17T19:23:47.350Z,98368.25
2022-09-17T19:26:16.188Z,98373.53
2022-09-17T19:28:43.717Z,98378.72
2022-09-17T19:31:12.010Z,98376.81
2022-09-17T19:33:39.335Z,98378.31
2022-09-17T19:36:10.814Z,98381.69
2022-09-17T19:38:38.221Z,98376.63
2022-09-17T19:41:14.167Z,98379.38
2022-09-17T19:43:42.173Z,98384.66
2022-09-17T19:46:13.833Z,98387.50
2022-09-17T19:48:44.993Z,98386.66
2022-09-17T19:51:12.816Z,98390.13
2022-09-17T19:53:40.097Z,98389.28
2022-09-17T19:56:08.088Z,98393.00
2022-09-17T19:58:35.589Z,98390.47
2022-09-17T20:01:02.860Z,98389.72
2022-09-17T20:03:30.186Z,98390.75
2022-09-17T20:06:03.810Z,98401.41
2022-09-17T20:08:31.451Z,98387.63
2022-09-17T20:11:05.780Z,98393.13
2022-09-17T20:13:33.492Z,98396.81
2022-09-17T20:16:27.599Z,98403.16
2022-09-17T20:18:55.304Z,98412.25
2022-09-17T20:21:27.942Z,98416.66
2022-09-17T20:23:55.845Z,98421.22
2022-09-17T20:26:23.692Z,98425.75
2022-09-17T20:28:51.810Z,98421.44
2022-09-17T20:31:20.757Z,98425.84
2022-09-17T20:33:51.425Z,98425.13
2022-09-17T20:36:19.077Z,98430.50
2022-09-17T20:41:36.103Z,98420.13
2022-09-17T20:44:04.590Z,98429.84
2022-09-17T20:46:32.016Z,98423.69
2022-09-17T20:49:00.227Z,98424.44
2022-09-17T20:51:29.356Z,98423.59
2022-09-17T20:53:57.535Z,98426.16
2022-09-17T20:56:26.719Z,98425.28
2022-09-17T20:59:09.194Z,98437.66
2022-09-17T21:01:40.703Z,98443.72
2022-09-17T21:04:08.710Z,98440.22
2022-09-17T21:06:37.456Z,98438.50
2022-09-17T21:09:06.434Z,98431.44
2022-09-17T21:11:34.784Z,98442.88
2022-09-17T21:14:02.287Z,98438.44
2022-09-17T21:16:30.006Z,98448.16
2022-09-17T21:18:58.544Z,98450.88
2022-09-17T21:21:26.325Z,98451.94
2022-09-17T21:23:53.749Z,98452.03
2022-09-17T21:26:22.354Z,98462.69
2022-09-17T21:28:50.791Z,98452.97
2022-09-17T21:31:19.595Z,98459.09
2022-09-17T21:33:47.413Z,98471.47
2022-09-17T21:36:18.785Z,98467.03
2022-09-17T21:38:46.016Z,98476.00
2022-09-17T21:41:14.674Z,98483.28
2022-09-17T21:43:42.711Z,98484.31
2022-09-17T21:46:11.104Z,98487.16
2022-09-17T21:48:45.963Z,98426.38
2022-09-17T21:51:16.190Z,98492.84
2022-09-17T21:53:43.716Z,98493.88
2022-09-17T21:56:11.313Z,98498.28
2022-09-17T21:58:38.635Z,98489.63
2022-09-17T22:01:05.711Z,98489.50
2022-09-17T22:03:33.072Z,98491.13
2022-09-17T22:06:04.765Z,98491.88
2022-09-17T22:08:32.610Z,98494.44
2022-09-17T22:11:09.308Z,98491.69
2022-09-17T22:13:36.892Z,98487.34
2022-09-17T22:16:05.433Z,98488.19
2022-09-17T22:18:33.991Z,98491.69
2022-09-17T22:21:01.498Z,98490.84
2022-09-17T22:23:29.038Z,98477.53
2022-09-17T22:26:06.106Z,98481.94
2022-09-17T22:28:33.674Z,98467.81
2022-09-17T22:31:04.613Z,98465.06
2022-09-17T22:33:33.339Z,98462.31
2022-09-17T22:36:04.586Z,98460.53
2022-09-17T22:38:32.043Z,98458.66
2022-09-17T22:41:06.145Z,98451.47
2022-09-17T22:43:33.465Z,98445.22
2022-09-17T22:46:00.919Z,98454.00
2022-09-17T22:48:28.069Z,98455.72
2022-09-17T22:50:55.279Z,98456.56
2022-09-17T22:53:22.613Z,98454.00
2022-09-17T22:55:57.128Z,98450.53
2022-09-17T22:58:24.919Z,98459.56
2022-09-17T23:00:52.600Z,98465.81
2022-09-17T23:03:21.043Z,98472.13
2022-09-17T23:05:51.307Z,98468.75
2022-09-17T23:08:18.293Z,98474.91
2022-09-17T23:10:45.732Z,98471.56
2022-09-17T23:13:13.040Z,98473.56
2022-09-17T23:15:40.797Z,98465.72
2022-09-17T23:18:08.439Z,98466.88
2022-09-17T23:20:35.707Z,98460.81
2022-09-17T23:23:03.133Z,98458.19
2022-09-17T23:25:30.787Z,98459.97
2022-09-17T23:27:58.768Z,98458.19
2022-09-17T23:30:27.202Z,98458.19
2022-09-17T23:32:55.358Z,98453.81
2022-09-17T23:35:23.190Z,98458.25
2022-09-17T23:37:50.614Z,98457.50
2022-09-17T23:40:22.260Z,98450.53
2022-09-17T23:42:49.461Z,98459.41
2022-09-17T23:45:16.658Z,98455.16
2022-09-17T23:47:46.879Z,98459.59
2022-09-17T23:50:14.440Z,98466.75
2022-09-17T23:52:41.585Z,98471.28
2022-09-17T23:55:09.367Z,98478.25
2022-09-17T23:57:37.350Z,98467.81
